createdAt,value
2022-08-30T00:01:00.792Z,4.28
2022-08-30T00:03:27.527Z,4.18
2022-08-30T00:05:56.216Z,3.95
2022-08-30T00:08:23.061Z,4.22
2022-08-30T00:10:51.216Z,3.92
2022-08-30T00:13:19.519Z,4.07
2022-08-30T00:15:46.749Z,4.43
2022-08-30T00:18:13.409Z,4.20
2022-08-30T00:20:40.340Z,3.78
2022-08-30T00:23:07.402Z,4.00
2022-08-30T00:25:34.475Z,4.15
2022-08-30T00:28:02.518Z,4.18
2022-08-30T00:32:55.576Z,4.00
2022-08-30T00:35:22.671Z,4.07
2022-08-30T00:37:50.863Z,4.03
2022-08-30T00:40:20.335Z,4.60
2022-08-30T00:42:59.598Z,4.10
2022-08-30T00:45:30.513Z,4.28
2022-08-30T00:47:57.930Z,4.03
2022-08-30T00:50:31.085Z,3.67
2022-08-30T00:53:01.323Z,4.25
2022-08-30T00:55:29.210Z,4.22
2022-08-30T00:58:00.178Z,4.60
2022-08-30T01:00:28.517Z,4.28
2022-08-30T01:02:55.331Z,4.55
2022-08-30T01:05:22.022Z,4.30
2022-08-30T01:07:48.469Z,4.55
2022-08-30T01:10:16.526Z,4.05
2022-08-30T01:15:14.467Z,4.25
2022-08-30T01:17:44.999Z,4.70
2022-08-30T01:20:15.600Z,4.75
2022-08-30T01:22:51.116Z,5.13
2022-08-30T01:25:29.928Z,4.78
2022-08-30T01:28:04.587Z,5.30
2022-08-30T01:30:32.479Z,5.18
2022-08-30T01:33:02.967Z,4.95
2022-08-30T01:35:35.228Z,4.88
2022-08-30T01:38:02.070Z,5.40
2022-08-30T01:40:28.537Z,5.45
2022-08-30T01:42:55.174Z,5.28
2022-08-30T01:45:21.781Z,5.65
2022-08-30T01:47:48.286Z,4.65
2022-08-30T01:50:14.876Z,4.78
2022-08-30T01:52:41.914Z,5.28
2022-08-30T01:55:09.136Z,4.80
2022-08-30T01:57:35.699Z,5.43
2022-08-30T02:00:02.465Z,5.28
2022-08-30T02:02:29.633Z,5.13
2022-08-30T02:04:56.981Z,5.50
2022-08-30T02:07:25.133Z,4.90
2022-08-30T02:09:53.093Z,5.20
2022-08-30T02:12:20.907Z,5.30
2022-08-30T02:14:47.758Z,5.35
2022-08-30T02:17:17.044Z,5.63
2022-08-30T02:19:43.669Z,5.38
2022-08-30T02:22:11.037Z,5.93
2022-08-30T02:24:38.031Z,5.63
2022-08-30T02:27:04.763Z,5.75
2022-08-30T02:29:31.454Z,5.63
2022-08-30T02:31:57.928Z,5.80
2022-08-30T02:34:24.567Z,6.00
2022-08-30T02:36:51.149Z,6.10
2022-08-30T02:39:17.749Z,6.00
2022-08-30T02:41:44.404Z,5.72
2022-08-30T02:44:11.400Z,6.40
2022-08-30T02:46:38.611Z,6.38
2022-08-30T02:49:32.486Z,6.35
2022-08-30T02:51:53.814Z,6.47
2022-08-30T02:54:20.334Z,6.32
2022-08-30T02:56:48.407Z,6.65
2022-08-30T02:59:16.231Z,6.45
2022-08-30T03:01:42.731Z,6.32
2022-08-30T03:04:09.868Z,6.38
2022-08-30T03:06:36.815Z,6.45
2022-08-30T03:09:03.658Z,6.65
2022-08-30T03:11:30.143Z,6.30
2022-08-30T03:13:56.653Z,5.82
2022-08-30T03:16:23.286Z,7.07
2022-08-30T03:18:49.763Z,6.68
2022-08-30T03:21:16.865Z,6.57
2022-08-30T03:23:43.933Z,6.40
2022-08-30T03:26:13.139Z,6.55
2022-08-30T03:28:39.672Z,6.97
2022-08-30T03:31:06.444Z,7.03
2022-08-30T03:33:32.904Z,6.93
2022-08-30T03:35:59.390Z,7.00
2022-08-30T03:38:26.130Z,6.95
2022-08-30T03:40:52.703Z,6.72
2022-08-30T03:43:19.399Z,6.60
2022-08-30T03:45:46.263Z,6.40
2022-08-30T03:48:13.021Z,6.68
2022-08-30T03:50:40.577Z,6.47
2022-08-30T03:53:07.264Z,6.72
2022-08-30T03:55:34.148Z,6.88
2022-08-30T03:58:00.698Z,7.30
2022-08-30T04:00:27.512Z,6.78
2022-08-30T04:02:54.150Z,7.15
2022-08-30T04:05:20.986Z,7.13
2022-08-30T04:07:47.428Z,7.35
2022-08-30T04:10:14.187Z,7.57
2022-08-30T04:12:40.753Z,7.72
2022-08-30T04:15:09.478Z,6.97
2022-08-30T04:17:36.141Z,8.05
2022-08-30T04:20:02.956Z,7.45
2022-08-30T04:22:29.435Z,7.25
2022-08-30T04:24:55.885Z,7.13
2022-08-30T04:27:22.603Z,7.18
2022-08-30T04:29:49.598Z,6.63
2022-08-30T04:32:17.057Z,7.50
2022-08-30T04:34:44.068Z,7.32
2022-08-30T04:37:10.565Z,7.47
2022-08-30T04:39:37.237Z,7.40
2022-08-30T04:42:04.207Z,7.40
2022-08-30T04:44:32.138Z,7.05
2022-08-30T04:46:59.085Z,7.28
2022-08-30T04:49:25.776Z,7.28
2022-08-30T04:51:52.262Z,7.50
2022-08-30T04:54:18.812Z,7.18
2022-08-30T04:56:45.528Z,7.03
2022-08-30T04:59:12.053Z,7.28
2022-08-30T05:01:45.442Z,7.38
2022-08-30T05:04:13.821Z,7.00
2022-08-30T05:06:40.555Z,7.18
2022-08-30T05:09:07.206Z,8.00
2022-08-30T05:11:33.747Z,6.95
2022-08-30T05:14:00.343Z,7.25
2022-08-30T05:16:27.279Z,7.53
2022-08-30T05:18:54.608Z,7.60
2022-08-30T05:21:25.442Z,8.02
2022-08-30T05:23:56.010Z,7.75
2022-08-30T05:26:26.507Z,7.82
2022-08-30T05:28:53.524Z,8.35
2022-08-30T05:31:24.114Z,7.95
2022-08-30T05:33:52.400Z,8.18
2022-08-30T05:36:21.065Z,8.40
2022-08-30T05:38:47.642Z,8.07
2022-08-30T05:41:14.500Z,8.77
2022-08-30T05:43:41.012Z,8.55
2022-08-30T05:46:10.638Z,8.18
2022-08-30T05:48:38.097Z,8.18
2022-08-30T05:51:09.224Z,8.05
2022-08-30T05:53:36.240Z,7.90
2022-08-30T05:56:05.621Z,7.78
2022-08-30T05:58:32.768Z,8.38
2022-08-30T06:00:59.973Z,8.18
2022-08-30T06:03:27.277Z,8.15
2022-08-30T06:05:53.995Z,7.38
2022-08-30T06:08:21.235Z,7.22
2022-08-30T06:10:47.984Z,7.82
2022-08-30T06:13:14.900Z,7.45
2022-08-30T06:15:45.071Z,7.00
2022-08-30T06:18:14.755Z,7.22
2022-08-30T06:20:47.482Z,6.95
2022-08-30T06:23:17.970Z,7.13
2022-08-30T06:25:44.900Z,6.63
2022-08-30T06:28:12.261Z,7.25
2022-08-30T06:30:41.683Z,7.15
2022-08-30T06:33:08.573Z,6.78
2022-08-30T06:35:46.719Z,6.97
2022-08-30T06:38:18.911Z,6.90
2022-08-30T06:40:45.641Z,6.50
2022-08-30T06:43:12.174Z,6.60
2022-08-30T06:45:38.669Z,6.13
2022-08-30T06:48:05.114Z,5.55
2022-08-30T06:50:31.993Z,5.93
2022-08-30T06:53:04.385Z,5.95
2022-08-30T06:55:33.261Z,5.72
2022-08-30T06:58:00.886Z,6.30
2022-08-30T07:00:28.016Z,4.85
2022-08-30T07:02:54.979Z,4.72
2022-08-30T07:05:23.595Z,4.32
2022-08-30T07:07:56.014Z,4.15
2022-08-30T07:10:22.505Z,3.70
2022-08-30T07:12:49.369Z,4.28
2022-08-30T07:15:16.565Z,3.53
2022-08-30T07:18:01.436Z,3.47
2022-08-30T07:20:27.886Z,3.00
2022-08-30T07:23:06.700Z,3.00
2022-08-30T07:25:33.254Z,2.63
2022-08-30T07:27:59.773Z,2.22
2022-08-30T07:30:26.303Z,2.10
2022-08-30T07:32:52.820Z,2.22
2022-08-30T07:35:19.254Z,2.05
2022-08-30T07:37:45.722Z,1.80
2022-08-30T07:40:12.734Z,1.65
2022-08-30T07:42:41.093Z,1.63
2022-08-30T07:45:08.676Z,1.60
2022-08-30T07:47:35.247Z,1.30
2022-08-30T07:50:02.424Z,1.77
2022-08-30T07:52:30.819Z,1.42
2022-08-30T07:54:59.146Z,1.30
2022-08-30T07:57:26.514Z,1.10
2022-08-30T07:59:53.315Z,1.38
2022-08-30T08:02:20.505Z,1.40
2022-08-30T08:04:48.517Z,1.33
2022-08-30T08:07:15.327Z,1.30
2022-08-30T08:09:41.858Z,1.30
2022-08-30T08:12:08.734Z,1.40
2022-08-30T08:14:36.156Z,1.10
2022-08-30T08:17:02.882Z,1.20
2022-08-30T08:19:29.384Z,1.40
2022-08-30T08:22:19.423Z,1.40
2022-08-30T08:24:43.704Z,1.35
2022-08-30T08:27:10.170Z,1.80
2022-08-30T08:29:36.706Z,1.27
2022-08-30T08:32:03.505Z,1.15
2022-08-30T08:34:30.031Z,1.30
2022-08-30T08:36:56.518Z,1.10
2022-08-30T08:39:23.016Z,1.20
2022-08-30T08:42:04.040Z,1.40
2022-08-30T08:44:50.656Z,1.10
2022-08-30T08:47:38.615Z,1.30
2022-08-30T08:50:17.467Z,1.30
2022-08-30T08:53:10.812Z,1.23
2022-08-30T08:55:50.434Z,1.10
2022-08-30T09:00:56.734Z,1.30
2022-08-30T09:03:24.901Z,1.60
2022-08-30T09:05:51.489Z,1.30
2022-08-30T09:08:19.853Z,1.20
2022-08-30T09:10:58.865Z,1.40
2022-08-30T09:13:26.505Z,1.50
2022-08-30T09:15:55.934Z,1.35
2022-08-30T09:18:48.987Z,1.00
2022-08-30T09:21:25.848Z,1.20
2022-08-30T09:24:06.854Z,1.38
2022-08-30T09:26:38.218Z,1.25
2022-08-30T09:29:05.839Z,1.10
2022-08-30T09:34:09.733Z,1.10
2022-08-30T09:36:51.832Z,1.20
2022-08-30T09:39:31.348Z,1.10
2022-08-30T09:42:14.258Z,1.30
2022-08-30T09:44:40.756Z,1.25
2022-08-30T09:47:31.811Z,1.10
2022-08-30T09:50:15.436Z,1.17
2022-08-30T09:52:50.948Z,1.17
2022-08-30T09:55:33.193Z,1.30
2022-08-30T09:58:08.759Z,1.20
2022-08-30T10:00:55.899Z,1.20
2022-08-30T10:03:46.864Z,1.20
2022-08-30T10:06:36.651Z,1.10
2022-08-30T10:09:09.030Z,1.20
2022-08-30T10:11:56.626Z,1.00
2022-08-30T10:14:54.972Z,1.40
2022-08-30T10:17:38.938Z,1.15
2022-08-30T10:20:17.084Z,1.20
2022-08-30T10:23:02.355Z,1.40
2022-08-30T10:25:34.737Z,1.30
2022-08-30T10:28:14.628Z,1.40
2022-08-30T10:33:36.903Z,1.13
2022-08-30T10:36:10.270Z,1.10
2022-08-30T10:38:40.599Z,1.20
2022-08-30T10:41:22.289Z,1.17
2022-08-30T10:44:11.902Z,1.02
2022-08-30T10:47:14.302Z,1.02
2022-08-30T10:49:55.546Z,0.90
2022-08-30T10:52:38.965Z,1.30
2022-08-30T10:55:08.504Z,1.10
2022-08-30T10:57:36.481Z,1.10
2022-08-30T11:00:11.912Z,1.27
2022-08-30T11:02:59.029Z,1.27
2022-08-30T11:05:44.399Z,1.30
2022-08-30T11:08:41.098Z,1.33
2022-08-30T11:11:24.855Z,1.15
2022-08-30T11:13:56.906Z,1.10
2022-08-30T11:16:36.458Z,1.10
2022-08-30T11:19:12.246Z,1.10
2022-08-30T11:21:41.832Z,1.05
2022-08-30T11:24:15.876Z,1.27
2022-08-30T11:26:45.388Z,1.15
2022-08-30T11:29:27.559Z,1.20
2022-08-30T11:31:59.715Z,1.20
2022-08-30T11:34:45.486Z,1.20
2022-08-30T11:37:37.509Z,1.20
2022-08-30T11:40:04.349Z,1.23
2022-08-30T11:42:35.401Z,1.35
2022-08-30T11:45:25.005Z,1.25
2022-08-30T11:47:59.830Z,1.38
2022-08-30T11:50:35.864Z,1.45
2022-08-30T11:53:05.588Z,1.10
2022-08-30T11:55:42.607Z,1.20
2022-08-30T11:58:30.333Z,1.33
2022-08-30T12:01:40.918Z,1.17
2022-08-30T12:04:15.246Z,1.20
2022-08-30T12:06:41.945Z,1.10
2022-08-30T12:09:35.364Z,1.20
2022-08-30T12:12:24.108Z,1.38
2022-08-30T12:14:54.637Z,1.17
2022-08-30T12:17:42.105Z,1.40
2022-08-30T12:20:30.842Z,1.30
2022-08-30T12:23:09.692Z,1.33
2022-08-30T12:25:36.239Z,1.10
2022-08-30T12:30:43.935Z,1.23
2022-08-30T12:33:24.086Z,1.13
2022-08-30T12:35:58.242Z,1.27
2022-08-30T12:38:27.474Z,1.13
2022-08-30T12:40:58.186Z,1.10
2022-08-30T12:43:40.445Z,1.08
2022-08-30T12:46:12.520Z,1.20
2022-08-30T12:48:42.882Z,1.30
2022-08-30T12:53:52.404Z,1.38
2022-08-30T12:56:30.432Z,1.10
2022-08-30T12:59:05.931Z,1.30
2022-08-30T13:01:35.681Z,1.33
2022-08-30T13:04:22.085Z,1.60
2022-08-30T13:06:55.981Z,1.30
2022-08-30T13:09:33.935Z,1.33
2022-08-30T13:12:03.185Z,1.50
2022-08-30T13:14:33.928Z,1.60
2022-08-30T13:17:25.702Z,1.48
2022-08-30T13:19:57.294Z,1.60
2022-08-30T13:22:31.730Z,1.80
2022-08-30T13:24:59.140Z,1.70
2022-08-30T13:27:26.789Z,1.90
2022-08-30T13:32:21.183Z,1.85
2022-08-30T13:34:47.810Z,2.15
2022-08-30T13:40:13.378Z,2.40
2022-08-30T13:42:42.996Z,2.53
2022-08-30T13:47:57.706Z,2.28
2022-08-30T13:50:24.251Z,2.45
2022-08-30T13:52:52.247Z,2.20
2022-08-30T13:55:18.750Z,2.00
2022-08-30T13:57:54.391Z,1.88
2022-08-30T14:00:22.359Z,1.77
2022-08-30T14:02:54.259Z,1.90
2022-08-30T14:11:07.005Z,1.70
2022-08-30T14:13:33.835Z,1.50
2022-08-30T14:18:51.241Z,1.50
2022-08-30T14:21:18.031Z,1.60
2022-08-30T14:23:48.313Z,1.50
2022-08-30T14:26:22.546Z,1.30
2022-08-30T14:28:51.576Z,1.40
2022-08-30T14:31:19.979Z,1.40
2022-08-30T14:33:47.114Z,1.48
2022-08-30T14:36:15.280Z,1.33
2022-08-30T14:38:42.987Z,1.30
2022-08-30T14:41:10.809Z,1.30
2022-08-30T14:43:39.640Z,1.35
2022-08-30T14:46:06.332Z,1.67
2022-08-30T14:48:32.885Z,1.40
2022-08-30T14:50:59.466Z,1.20
2022-08-30T14:53:26.439Z,1.45
2022-08-30T14:55:52.969Z,1.35
2022-08-30T14:58:19.521Z,2.13
2022-08-30T15:00:52.856Z,1.45
2022-08-30T15:03:19.586Z,1.10
2022-08-30T15:05:52.869Z,1.30
2022-08-30T15:08:19.911Z,1.20
2022-08-30T15:10:47.429Z,1.20
2022-08-30T15:13:14.734Z,0.98
2022-08-30T15:15:44.275Z,1.23
2022-08-30T15:18:10.887Z,1.20
2022-08-30T15:20:37.833Z,1.20
2022-08-30T15:23:05.004Z,1.25
2022-08-30T15:25:31.906Z,1.17
2022-08-30T15:27:58.555Z,1.20
2022-08-30T15:30:25.234Z,1.27
2022-08-30T15:32:51.940Z,1.30
2022-08-30T15:35:18.703Z,1.50
2022-08-30T15:37:45.414Z,1.10
2022-08-30T15:40:12.646Z,1.20
2022-08-30T15:42:39.901Z,1.20
2022-08-30T15:45:09.589Z,1.15
2022-08-30T15:47:36.365Z,1.05
2022-08-30T15:50:06.595Z,1.10
2022-08-30T15:52:33.756Z,1.13
2022-08-30T15:55:00.300Z,1.00
2022-08-30T15:57:26.858Z,1.10
2022-08-30T15:59:54.673Z,1.20
2022-08-30T16:02:22.228Z,1.58
2022-08-30T16:04:54.338Z,1.13
2022-08-30T16:07:20.868Z,1.13
2022-08-30T16:09:47.484Z,1.52
2022-08-30T16:12:22.315Z,1.27
2022-08-30T16:14:50.819Z,1.23
2022-08-30T16:17:17.555Z,1.20
2022-08-30T16:19:44.958Z,1.27
2022-08-30T16:22:11.787Z,1.20
2022-08-30T16:24:38.799Z,1.10
2022-08-30T16:27:05.753Z,1.17
2022-08-30T16:29:35.474Z,1.02
2022-08-30T16:32:02.109Z,1.20
2022-08-30T16:34:28.755Z,1.10
2022-08-30T16:36:55.427Z,1.17
2022-08-30T16:39:22.292Z,1.15
2022-08-30T16:41:48.930Z,1.10
2022-08-30T16:44:17.925Z,1.13
2022-08-30T16:46:53.367Z,1.00
2022-08-30T16:49:20.908Z,1.25
2022-08-30T16:51:49.697Z,1.20
2022-08-30T16:54:19.864Z,1.30
2022-08-30T16:56:46.432Z,1.25
2022-08-30T16:59:13.691Z,1.00
2022-08-30T17:01:42.413Z,1.23
2022-08-30T17:04:09.737Z,1.10
2022-08-30T17:06:37.086Z,1.15
2022-08-30T17:09:07.786Z,1.00
2022-08-30T17:11:36.023Z,1.20
2022-08-30T17:14:03.640Z,1.10
2022-08-30T17:16:30.330Z,1.10
2022-08-30T17:19:00.350Z,0.95
2022-08-30T17:21:28.829Z,1.23
2022-08-30T17:24:01.371Z,1.00
2022-08-30T17:26:29.359Z,1.10
2022-08-30T17:28:55.939Z,1.20
2022-08-30T17:31:22.574Z,1.02
2022-08-30T17:33:50.031Z,1.02
2022-08-30T17:36:16.536Z,1.48
2022-08-30T17:38:45.071Z,1.30
2022-08-30T17:41:29.378Z,1.10
2022-08-30T17:43:58.393Z,1.00
2022-08-30T17:46:25.299Z,1.05
2022-08-30T17:48:58.047Z,1.10
2022-08-30T17:51:29.703Z,1.25
2022-08-30T17:53:56.654Z,1.20
2022-08-30T17:56:24.321Z,1.50
2022-08-30T17:59:00.879Z,1.10
2022-08-30T18:01:28.225Z,1.17
2022-08-30T18:04:01.826Z,1.00
2022-08-30T18:08:55.441Z,1.20
2022-08-30T18:11:22.056Z,1.92
2022-08-30T18:13:48.490Z,1.60
2022-08-30T18:16:15.055Z,3.22
2022-08-30T18:18:49.976Z,2.08
2022-08-30T18:21:22.008Z,1.70
2022-08-30T18:23:50.010Z,1.58
2022-08-30T18:26:18.970Z,2.33
2022-08-30T18:31:17.301Z,1.42
2022-08-30T18:33:44.681Z,1.48
2022-08-30T18:36:11.908Z,1.60
2022-08-30T18:38:39.379Z,1.40
2022-08-30T18:41:08.888Z,1.27
2022-08-30T18:43:36.780Z,1.23
2022-08-30T18:46:06.342Z,1.25
2022-08-30T18:48:34.284Z,1.10
2022-08-30T18:51:01.891Z,1.15
2022-08-30T18:53:29.438Z,1.08
2022-08-30T18:55:57.170Z,1.23
2022-08-30T18:58:23.680Z,1.33
2022-08-30T19:00:50.757Z,1.30
2022-08-30T19:03:18.768Z,1.75
2022-08-30T19:08:11.801Z,1.65
2022-08-30T19:10:38.412Z,1.50
2022-08-30T19:13:06.287Z,1.45
2022-08-30T19:15:36.463Z,1.50
2022-08-30T19:18:16.679Z,1.60
2022-08-30T19:20:45.222Z,2.00
2022-08-30T19:23:12.215Z,1.25
2022-08-30T19:25:41.830Z,1.40
2022-08-30T19:28:09.276Z,1.52
2022-08-30T19:30:36.219Z,1.48
2022-08-30T19:33:03.142Z,1.20
2022-08-30T19:35:30.130Z,1.40
2022-08-30T19:37:56.999Z,1.50
2022-08-30T19:40:23.561Z,1.27
2022-08-30T19:42:52.268Z,1.60
2022-08-30T19:45:21.647Z,1.92
2022-08-30T19:47:49.459Z,1.88
2022-08-30T19:50:16.780Z,1.73
2022-08-30T19:52:44.604Z,1.70
2022-08-30T19:55:13.534Z,2.15
2022-08-30T19:57:42.962Z,1.77
2022-08-30T20:00:11.244Z,1.88
2022-08-30T20:02:38.629Z,1.83
2022-08-30T20:05:05.760Z,1.60
2022-08-30T20:07:36.071Z,1.90
2022-08-30T20:10:09.813Z,1.80
2022-08-30T20:12:37.165Z,2.10
2022-08-30T20:18:01.947Z,1.98
2022-08-30T20:20:23.588Z,2.00
2022-08-30T20:22:54.251Z,2.10
2022-08-30T20:25:21.772Z,2.13
2022-08-30T20:27:49.166Z,2.30
2022-08-30T20:30:17.447Z,2.47
2022-08-30T20:32:46.596Z,2.28
2022-08-30T20:35:15.077Z,2.42
2022-08-30T20:37:43.275Z,2.53
2022-08-30T20:40:15.539Z,2.53
2022-08-30T20:42:44.467Z,2.47
2022-08-30T20:45:13.833Z,2.47
2022-08-30T20:47:41.758Z,2.40
2022-08-30T20:50:13.423Z,2.75
2022-08-30T20:52:40.500Z,2.83
2022-08-30T20:55:07.988Z,2.58
2022-08-30T20:57:34.597Z,3.15
2022-08-30T21:00:01.775Z,2.75
2022-08-30T21:02:28.486Z,2.90
2022-08-30T21:04:55.072Z,2.90
2022-08-30T21:07:21.614Z,3.10
2022-08-30T21:09:48.156Z,2.92
2022-08-30T21:12:14.684Z,3.20
2022-08-30T21:14:41.177Z,3.15
2022-08-30T21:17:07.787Z,2.88
2022-08-30T21:19:34.323Z,3.10
2022-08-30T21:22:01.683Z,3.00
2022-08-30T21:24:28.174Z,3.00
2022-08-30T21:26:55.782Z,2.97
2022-08-30T21:29:22.562Z,2.90
2022-08-30T21:31:49.048Z,3.35
2022-08-30T21:34:17.424Z,3.28
2022-08-30T21:36:47.349Z,2.85
2022-08-30T21:39:26.515Z,2.72
2022-08-30T21:41:57.030Z,2.85
2022-08-30T21:44:26.233Z,2.70
2022-08-30T21:46:54.954Z,2.85
2022-08-30T21:49:23.579Z,2.85
2022-08-30T21:51:52.419Z,2.60
2022-08-30T21:54:19.561Z,2.90
2022-08-30T21:56:47.929Z,2.40
2022-08-30T21:59:14.805Z,2.47
2022-08-30T22:01:43.168Z,2.72
2022-08-30T22:04:10.761Z,2.60
2022-08-30T22:06:39.986Z,2.42
2022-08-30T22:09:09.659Z,2.63
2022-08-30T22:11:36.965Z,2.47
2022-08-30T22:14:05.511Z,2.72
2022-08-30T22:16:32.683Z,2.40
2022-08-30T22:18:59.443Z,2.67
2022-08-30T22:21:29.048Z,2.60
2022-08-30T22:23:56.251Z,2.50
2022-08-30T22:26:24.388Z,2.42
2022-08-30T22:28:52.439Z,2.72
2022-08-30T22:33:47.966Z,2.35
2022-08-30T22:36:19.065Z,2.47
2022-08-30T22:38:45.656Z,2.50
2022-08-30T22:41:17.047Z,2.45
2022-08-30T22:43:44.403Z,2.30
2022-08-30T22:46:11.799Z,2.58
2022-08-30T22:48:41.263Z,2.05
2022-08-30T22:51:08.277Z,2.50
2022-08-30T22:53:35.308Z,2.28
2022-08-30T22:56:10.570Z,2.40
2022-08-30T22:58:37.498Z,2.20
2022-08-30T23:01:05.510Z,2.13
2022-08-30T23:06:01.697Z,2.38
2022-08-30T23:08:28.454Z,2.17
2022-08-30T23:10:57.860Z,2.22
2022-08-30T23:13:25.006Z,2.20
2022-08-30T23:15:51.785Z,2.10
2022-08-30T23:18:18.433Z,2.10
2022-08-30T23:20:45.469Z,2.05
2022-08-30T23:23:30.874Z,2.20
2022-08-30T23:26:19.364Z,2.30
2022-08-30T23:29:04.729Z,2.20
2022-08-30T23:31:49.876Z,2.25
2022-08-30T23:34:34.945Z,2.00
2022-08-30T23:37:19.757Z,2.10
2022-08-30T23:40:04.862Z,2.15
2022-08-30T23:42:49.924Z,2.20
2022-08-30T23:45:35.678Z,2.38
2022-08-30T23:48:20.905Z,2.28
2022-08-30T23:51:06.098Z,2.05
2022-08-30T23:53:51.121Z,2.30
2022-08-30T23:56:36.641Z,2.10
2022-08-30T23:59:21.812Z,2.00
